createdAt,value
2022-10-13T00:00:13.298Z,59.84
2022-10-13T00:02:40.024Z,59.50
2022-10-13T00:05:06.691Z,58.78
2022-10-13T00:07:33.367Z,59.31
2022-10-13T00:09:59.944Z,58.77
2022-10-13T00:12:26.608Z,58.64
2022-10-13T00:14:53.191Z,59.09
2022-10-13T00:17:19.812Z,58.91
2022-10-13T00:19:46.369Z,59.03
2022-10-13T00:22:13.127Z,58.71
2022-10-13T00:24:39.693Z,58.51
2022-10-13T00:27:06.287Z,58.35
2022-10-13T00:29:32.886Z,58.09
2022-10-13T00:31:59.754Z,58.07
2022-10-13T00:34:26.385Z,58.41
2022-10-13T00:36:52.952Z,59.56
2022-10-13T00:39:19.598Z,60.24
2022-10-13T00:41:46.255Z,59.35
2022-10-13T00:44:31.587Z,58.25
2022-10-13T00:46:58.166Z,58.73
2022-10-13T00:49:24.751Z,58.98
2022-10-13T00:51:51.525Z,58.39
2022-10-13T00:54:20.655Z,57.93
2022-10-13T00:56:47.614Z,58.24
2022-10-13T00:59:23.170Z,58.70
2022-10-13T01:01:51.096Z,58.75
2022-10-13T01:04:18.636Z,59.44
2022-10-13T01:06:45.784Z,60.06
2022-10-13T01:09:12.464Z,60.82
2022-10-13T01:12:02.418Z,60.86
2022-10-13T01:14:47.492Z,60.65
2022-10-13T01:17:32.641Z,60.06
2022-10-13T01:20:01.942Z,60.38
2022-10-13T01:22:34.484Z,60.69
2022-10-13T01:25:04.023Z,59.98
2022-10-13T01:27:49.560Z,59.22
2022-10-13T01:30:18.562Z,58.46
2022-10-13T01:32:45.161Z,59.48
2022-10-13T01:35:15.052Z,59.22
2022-10-13T01:37:48.680Z,59.92
2022-10-13T01:40:24.566Z,60.09
2022-10-13T01:43:01.321Z,60.90
2022-10-13T01:45:34.262Z,61.49
2022-10-13T01:48:02.355Z,61.34
2022-10-13T01:50:29.932Z,61.23
2022-10-13T01:52:59.847Z,60.51
2022-10-13T01:55:26.475Z,60.67
2022-10-13T01:57:53.100Z,60.49
2022-10-13T02:00:20.981Z,59.94
2022-10-13T02:02:57.080Z,59.43
2022-10-13T02:05:53.857Z,59.09
2022-10-13T02:08:30.429Z,59.93
2022-10-13T02:11:02.010Z,60.44
2022-10-13T02:13:30.035Z,60.33
2022-10-13T02:15:59.286Z,60.35
2022-10-13T02:18:31.331Z,60.25
2022-10-13T02:20:58.482Z,60.05
2022-10-13T02:23:25.387Z,60.55
2022-10-13T02:25:52.009Z,59.76
2022-10-13T02:28:19.161Z,59.79
2022-10-13T02:30:46.412Z,59.21
2022-10-13T02:33:13.972Z,60.35
2022-10-13T02:35:40.755Z,61.12
2022-10-13T02:38:07.380Z,61.60
2022-10-13T02:40:34.015Z,61.19
2022-10-13T02:43:00.642Z,60.67
2022-10-13T02:45:27.295Z,61.63
2022-10-13T02:47:54.377Z,61.26
2022-10-13T02:50:20.986Z,60.72
2022-10-13T02:52:47.609Z,60.37
2022-10-13T02:55:14.209Z,60.56
2022-10-13T02:57:40.924Z,60.66
2022-10-13T03:00:07.824Z,60.26
2022-10-13T03:02:34.406Z,62.07
2022-10-13T03:05:00.951Z,60.98
2022-10-13T03:07:27.553Z,60.94
2022-10-13T03:09:54.136Z,60.52
2022-10-13T03:12:21.207Z,60.94
2022-10-13T03:14:48.168Z,62.04
2022-10-13T03:17:14.864Z,62.06
2022-10-13T03:19:41.503Z,62.02
2022-10-13T03:22:08.094Z,61.68
2022-10-13T03:24:34.862Z,61.98
2022-10-13T03:27:01.421Z,62.15
2022-10-13T03:29:28.084Z,62.55
2022-10-13T03:31:54.690Z,62.04
2022-10-13T03:34:21.361Z,61.10
2022-10-13T03:36:48.168Z,60.68
2022-10-13T03:39:14.954Z,60.35
2022-10-13T03:41:41.848Z,60.51
2022-10-13T03:44:10.535Z,60.52
2022-10-13T03:46:37.320Z,60.34
2022-10-13T03:49:03.907Z,60.03
2022-10-13T03:51:30.591Z,60.26
2022-10-13T03:53:57.215Z,60.15
2022-10-13T03:56:25.769Z,60.07
2022-10-13T03:58:54.877Z,60.12
2022-10-13T04:01:23.345Z,61.03
2022-10-13T04:03:50.487Z,61.06
2022-10-13T04:06:17.212Z,60.00
2022-10-13T04:08:43.981Z,60.66
2022-10-13T04:11:13.183Z,61.09
2022-10-13T04:13:39.892Z,61.54
2022-10-13T04:16:07.821Z,61.44
2022-10-13T04:18:34.674Z,61.29
2022-10-13T04:21:01.397Z,60.61
2022-10-13T04:23:28.029Z,60.56
2022-10-13T04:25:54.723Z,60.31
2022-10-13T04:28:21.392Z,60.19
2022-10-13T04:30:49.522Z,60.59
2022-10-13T04:33:16.335Z,61.81
2022-10-13T04:35:42.912Z,61.23
2022-10-13T04:38:09.585Z,61.27
2022-10-13T04:40:36.184Z,60.88
2022-10-13T04:43:02.885Z,60.33
2022-10-13T04:45:29.486Z,60.16
2022-10-13T04:47:56.060Z,60.38
2022-10-13T04:50:22.718Z,60.37
2022-10-13T04:52:49.344Z,60.69
2022-10-13T04:55:15.942Z,60.62
2022-10-13T04:57:42.587Z,60.44
2022-10-13T05:00:09.853Z,59.82
2022-10-13T05:02:36.611Z,59.94
2022-10-13T05:05:03.795Z,60.71
2022-10-13T05:07:30.952Z,60.69
2022-10-13T05:09:57.898Z,60.89
2022-10-13T05:12:24.730Z,61.03
2022-10-13T05:14:51.350Z,61.51
2022-10-13T05:17:17.989Z,61.35
2022-10-13T05:19:44.807Z,61.44
2022-10-13T05:22:11.527Z,62.21
2022-10-13T05:24:38.806Z,62.43
2022-10-13T05:27:12.469Z,62.50
2022-10-13T05:29:39.468Z,64.20
2022-10-13T05:32:06.537Z,65.88
2022-10-13T05:34:33.410Z,66.23
2022-10-13T05:37:00.558Z,65.70
2022-10-13T05:39:27.426Z,64.83
2022-10-13T05:41:54.319Z,63.50
2022-10-13T05:44:21.521Z,62.71
2022-10-13T05:46:48.118Z,60.77
2022-10-13T05:49:14.746Z,59.46
2022-10-13T05:51:43.645Z,59.04
2022-10-13T05:54:16.181Z,58.29
2022-10-13T05:56:46.193Z,57.05
2022-10-13T05:59:14.256Z,57.42
2022-10-13T06:01:42.525Z,56.92
2022-10-13T06:04:16.270Z,55.76
2022-10-13T06:06:42.940Z,55.05
2022-10-13T06:09:10.717Z,54.88
2022-10-13T06:11:37.754Z,53.51
2022-10-13T06:14:04.576Z,52.77
2022-10-13T06:16:32.031Z,52.17
2022-10-13T06:18:58.673Z,52.32
2022-10-13T06:21:25.226Z,52.73
2022-10-13T06:23:51.867Z,52.69
2022-10-13T06:26:18.557Z,52.42
2022-10-13T06:28:49.724Z,51.77
2022-10-13T06:31:17.110Z,51.92
2022-10-13T06:33:45.067Z,50.97
2022-10-13T06:36:11.826Z,50.54
2022-10-13T06:38:38.445Z,51.07
2022-10-13T06:41:05.947Z,49.14
2022-10-13T06:43:39.840Z,48.57
2022-10-13T06:46:07.191Z,49.18
2022-10-13T06:48:34.371Z,48.56
2022-10-13T06:51:02.447Z,48.52
2022-10-13T06:53:29.158Z,48.02
2022-10-13T06:55:59.764Z,48.13
2022-10-13T06:58:26.848Z,47.50
2022-10-13T07:00:54.054Z,48.55
2022-10-13T07:03:21.088Z,48.90
2022-10-13T07:05:47.701Z,48.06
2022-10-13T07:08:14.577Z,48.29
2022-10-13T07:10:41.240Z,47.86
2022-10-13T07:13:08.011Z,47.69
2022-10-13T07:15:37.185Z,46.98
2022-10-13T07:18:03.876Z,46.84
2022-10-13T07:20:30.416Z,45.52
2022-10-13T07:22:57.086Z,45.35
2022-10-13T07:25:26.861Z,44.24
2022-10-13T07:27:53.656Z,43.71
2022-10-13T07:30:20.409Z,43.88
2022-10-13T07:32:47.149Z,43.93
2022-10-13T07:35:14.060Z,44.11
2022-10-13T07:37:40.812Z,45.22
2022-10-13T07:40:08.117Z,45.21
2022-10-13T07:42:34.783Z,47.12
2022-10-13T07:45:01.382Z,50.73
2022-10-13T07:47:28.729Z,52.02
2022-10-13T07:49:55.924Z,54.60
2022-10-13T07:52:22.732Z,53.75
2022-10-13T07:54:50.204Z,53.32
2022-10-13T07:57:17.018Z,52.78
2022-10-13T07:59:43.736Z,55.36
2022-10-13T08:02:10.379Z,55.09
2022-10-13T08:04:37.400Z,54.98
2022-10-13T08:07:04.467Z,53.78
2022-10-13T08:09:31.278Z,55.69
2022-10-13T08:12:00.898Z,57.93
2022-10-13T08:14:29.200Z,56.71
2022-10-13T08:16:56.307Z,57.23
2022-10-13T08:19:23.478Z,59.71
2022-10-13T08:21:58.141Z,59.02
2022-10-13T08:24:26.594Z,57.45
2022-10-13T08:26:53.785Z,56.57
2022-10-13T08:29:23.923Z,55.46
2022-10-13T08:31:53.835Z,53.08
2022-10-13T08:34:21.798Z,54.03
2022-10-13T08:36:53.818Z,53.46
2022-10-13T08:39:23.490Z,52.59
2022-10-13T08:41:53.001Z,54.36
2022-10-13T08:45:02.749Z,53.06
2022-10-13T08:47:21.913Z,52.31
2022-10-13T08:49:48.881Z,52.34
2022-10-13T08:52:26.251Z,51.75
2022-10-13T08:54:54.373Z,50.55
2022-10-13T08:57:21.686Z,47.62
2022-10-13T08:59:49.140Z,48.26
2022-10-13T09:02:22.756Z,49.23
2022-10-13T09:04:51.488Z,48.31
2022-10-13T09:07:20.776Z,50.81
2022-10-13T09:09:50.792Z,50.10
2022-10-13T09:12:22.195Z,48.59
2022-10-13T09:15:01.650Z,49.78
2022-10-13T09:17:29.385Z,49.10
2022-10-13T09:20:01.452Z,49.01
2022-10-13T09:22:31.018Z,48.37
2022-10-13T09:25:07.545Z,48.45
2022-10-13T09:27:45.822Z,46.74
2022-10-13T09:30:35.618Z,45.49
2022-10-13T09:33:15.775Z,48.24
2022-10-13T09:35:42.609Z,45.53
2022-10-13T09:38:20.191Z,45.27
2022-10-13T09:41:07.631Z,46.76
2022-10-13T09:43:39.478Z,44.18
2022-10-13T09:46:27.682Z,43.21
2022-10-13T09:48:59.045Z,43.90
2022-10-13T09:51:36.048Z,44.18
2022-10-13T09:54:05.411Z,44.92
2022-10-13T09:56:40.249Z,43.28
2022-10-13T09:59:13.935Z,41.79
2022-10-13T10:01:45.087Z,43.06
2022-10-13T10:04:16.776Z,39.88
2022-10-13T10:06:47.899Z,42.41
2022-10-13T10:09:50.554Z,41.00
2022-10-13T10:12:21.893Z,42.98
2022-10-13T10:14:50.818Z,42.77
2022-10-13T10:17:20.974Z,43.30
2022-10-13T10:19:54.658Z,43.34
2022-10-13T10:22:44.616Z,45.80
2022-10-13T10:25:30.266Z,45.29
2022-10-13T10:28:05.855Z,44.74
2022-10-13T10:30:35.630Z,42.23
2022-10-13T10:33:06.196Z,40.90
2022-10-13T10:36:17.080Z,40.80
2022-10-13T10:38:43.717Z,41.97
2022-10-13T10:41:28.664Z,43.89
2022-10-13T10:44:00.812Z,44.46
2022-10-13T10:46:35.759Z,45.30
2022-10-13T10:49:04.601Z,44.12
2022-10-13T10:51:36.884Z,43.43
2022-10-13T10:54:06.698Z,44.18
2022-10-13T10:56:36.283Z,43.88
2022-10-13T10:59:08.811Z,42.96
2022-10-13T11:01:41.670Z,45.56
2022-10-13T11:04:31.094Z,44.53
2022-10-13T11:06:57.996Z,44.49
2022-10-13T11:09:42.907Z,45.76
2022-10-13T11:12:22.170Z,43.89
2022-10-13T11:14:55.305Z,42.08
2022-10-13T11:17:29.135Z,43.24
2022-10-13T11:19:56.401Z,42.93
2022-10-13T11:22:24.728Z,42.60
2022-10-13T11:24:54.305Z,40.95
2022-10-13T11:27:27.217Z,41.29
2022-10-13T11:29:56.061Z,40.22
2022-10-13T11:32:26.396Z,41.10
2022-10-13T11:34:59.267Z,44.09
2022-10-13T11:37:55.671Z,41.18
2022-10-13T11:40:35.530Z,41.40
2022-10-13T11:43:08.472Z,42.78
2022-10-13T11:45:53.932Z,44.13
2022-10-13T11:48:26.612Z,42.10
2022-10-13T11:50:56.257Z,40.85
2022-10-13T11:53:35.494Z,40.80
2022-10-13T11:56:02.407Z,40.86
2022-10-13T11:58:33.074Z,42.38
2022-10-13T12:01:06.643Z,42.58
2022-10-13T12:03:37.929Z,43.71
2022-10-13T12:06:23.868Z,43.28
2022-10-13T12:08:51.663Z,43.75
2022-10-13T12:11:26.143Z,44.63
2022-10-13T12:13:53.118Z,42.02
2022-10-13T12:16:20.344Z,40.91
2022-10-13T12:18:47.087Z,41.25
2022-10-13T12:21:23.299Z,39.68
2022-10-13T12:23:51.202Z,40.52
2022-10-13T12:26:23.086Z,40.76
2022-10-13T12:28:57.890Z,41.27
2022-10-13T12:31:29.950Z,40.60
2022-10-13T12:33:57.721Z,42.51
2022-10-13T12:36:30.422Z,43.22
2022-10-13T12:38:59.875Z,42.99
2022-10-13T12:41:29.342Z,41.93
2022-10-13T12:43:56.071Z,41.78
2022-10-13T12:46:41.110Z,40.99
2022-10-13T12:49:08.416Z,44.26
2022-10-13T12:51:37.070Z,42.04
2022-10-13T12:54:17.714Z,42.33
2022-10-13T12:56:44.439Z,42.32
2022-10-13T12:59:18.325Z,41.15
2022-10-13T13:01:46.099Z,39.81
2022-10-13T13:04:18.841Z,41.71
2022-10-13T13:07:01.733Z,41.25
2022-10-13T13:09:39.330Z,39.65
2022-10-13T13:12:08.812Z,40.13
2022-10-13T13:14:37.524Z,40.45
2022-10-13T13:17:06.332Z,40.90
2022-10-13T13:19:34.610Z,40.48
2022-10-13T13:22:01.281Z,39.07
2022-10-13T13:24:39.471Z,38.93
2022-10-13T13:27:17.687Z,37.64
2022-10-13T13:29:44.950Z,36.79
2022-10-13T13:32:16.852Z,37.51
2022-10-13T13:34:47.141Z,37.39
2022-10-13T13:37:34.128Z,38.88
2022-10-13T13:40:01.299Z,38.55
2022-10-13T13:42:28.956Z,39.12
2022-10-13T13:44:56.096Z,39.69
2022-10-13T13:47:23.721Z,38.40
2022-10-13T13:49:51.214Z,39.79
2022-10-13T13:52:18.864Z,40.93
2022-10-13T13:54:45.675Z,38.26
2022-10-13T13:57:13.731Z,37.69
2022-10-13T13:59:41.280Z,36.37
2022-10-13T14:02:12.458Z,37.95
2022-10-13T14:04:39.387Z,37.11
2022-10-13T14:07:06.571Z,35.54
2022-10-13T14:09:33.722Z,35.84
2022-10-13T14:12:00.481Z,36.33
2022-10-13T14:14:27.130Z,35.15
2022-10-13T14:16:53.886Z,35.45
2022-10-13T14:19:20.552Z,34.93
2022-10-13T14:21:47.323Z,35.25
2022-10-13T14:24:14.172Z,35.40
2022-10-13T14:26:41.446Z,35.57
2022-10-13T14:29:08.610Z,34.65
2022-10-13T14:31:35.502Z,34.57
2022-10-13T14:34:02.976Z,34.32
2022-10-13T14:36:29.530Z,36.27
2022-10-13T14:38:56.277Z,34.41
2022-10-13T14:41:23.070Z,36.85
2022-10-13T14:43:56.669Z,35.70
2022-10-13T14:46:24.307Z,35.45
2022-10-13T14:48:51.051Z,36.92
2022-10-13T14:51:17.923Z,36.68
2022-10-13T14:53:45.439Z,36.61
2022-10-13T14:56:19.973Z,35.89
2022-10-13T14:58:47.772Z,36.87
2022-10-13T15:01:14.684Z,36.86
2022-10-13T15:03:41.398Z,36.79
2022-10-13T15:06:10.652Z,36.35
2022-10-13T15:08:37.322Z,36.75
2022-10-13T15:11:04.250Z,37.07
2022-10-13T15:13:30.949Z,37.00
2022-10-13T15:16:01.133Z,38.27
2022-10-13T15:18:29.393Z,37.77
2022-10-13T15:20:56.749Z,37.96
2022-10-13T15:23:23.483Z,38.22
2022-10-13T15:25:51.335Z,38.95
2022-10-13T15:28:18.701Z,39.92
2022-10-13T15:30:45.572Z,41.19
2022-10-13T15:33:12.128Z,41.70
2022-10-13T15:35:38.816Z,42.02
2022-10-13T15:38:05.492Z,43.95
2022-10-13T15:40:36.350Z,44.17
2022-10-13T15:43:03.973Z,44.13
2022-10-13T15:45:30.904Z,44.14
2022-10-13T15:47:57.898Z,44.30
2022-10-13T15:50:24.770Z,44.23
2022-10-13T15:52:52.466Z,44.52
2022-10-13T15:55:19.344Z,45.51
2022-10-13T15:57:46.163Z,45.57
2022-10-13T16:00:13.981Z,45.76
2022-10-13T16:02:41.471Z,45.98
2022-10-13T16:05:08.989Z,45.63
2022-10-13T16:07:36.238Z,45.89
2022-10-13T16:10:03.179Z,46.12
2022-10-13T16:12:30.019Z,46.92
2022-10-13T16:14:57.027Z,47.88
2022-10-13T16:17:23.752Z,47.71
2022-10-13T16:19:50.504Z,48.01
2022-10-13T16:22:17.283Z,47.89
2022-10-13T16:24:43.888Z,48.27
2022-10-13T16:27:10.824Z,48.26
2022-10-13T16:29:37.788Z,48.62
2022-10-13T16:32:04.883Z,50.09
2022-10-13T16:34:31.525Z,50.19
2022-10-13T16:36:58.283Z,49.80
2022-10-13T16:39:25.354Z,50.03
2022-10-13T16:41:52.013Z,50.46
2022-10-13T16:44:18.643Z,50.39
2022-10-13T16:46:45.701Z,49.99
2022-10-13T16:49:13.050Z,49.79
2022-10-13T16:51:39.751Z,50.11
2022-10-13T16:54:06.455Z,51.68
2022-10-13T16:56:33.143Z,52.05
2022-10-13T16:59:01.067Z,52.26
2022-10-13T17:01:28.510Z,52.26
2022-10-13T17:03:55.320Z,52.35
2022-10-13T17:06:23.386Z,52.23
2022-10-13T17:08:50.265Z,52.09
2022-10-13T17:11:18.959Z,52.21
2022-10-13T17:13:45.587Z,51.95
2022-10-13T17:16:12.213Z,51.67
2022-10-13T17:18:38.864Z,51.38
2022-10-13T17:21:08.901Z,51.40
2022-10-13T17:23:35.980Z,51.02
2022-10-13T17:26:04.274Z,51.39
2022-10-13T17:28:30.887Z,51.58
2022-10-13T17:30:59.164Z,51.32
2022-10-13T17:33:29.836Z,51.58
2022-10-13T17:36:00.552Z,51.30
2022-10-13T17:38:27.244Z,51.59
2022-10-13T17:40:58.756Z,52.04
2022-10-13T17:43:26.448Z,53.17
2022-10-13T17:45:53.193Z,54.19
2022-10-13T17:48:23.073Z,54.13
2022-10-13T17:50:50.027Z,53.96
2022-10-13T17:53:16.656Z,53.94
2022-10-13T17:55:43.439Z,53.59
2022-10-13T17:58:10.198Z,54.40
2022-10-13T18:01:00.750Z,55.06
2022-10-13T18:03:24.678Z,56.72
2022-10-13T18:05:52.348Z,57.13
2022-10-13T18:08:19.995Z,56.88
2022-10-13T18:11:07.022Z,56.49
2022-10-13T18:13:34.002Z,56.09
2022-10-13T18:16:07.408Z,55.73
2022-10-13T18:18:34.415Z,55.27
2022-10-13T18:21:02.479Z,55.17
2022-10-13T18:23:32.883Z,55.39
2022-10-13T18:26:00.542Z,55.24
2022-10-13T18:28:28.975Z,55.04
2022-10-13T18:30:55.633Z,54.58
2022-10-13T18:33:22.428Z,54.50
2022-10-13T18:35:49.245Z,54.37
2022-10-13T18:38:20.232Z,54.66
2022-10-13T18:40:46.872Z,54.52
2022-10-13T18:43:13.543Z,54.42
2022-10-13T18:45:40.337Z,54.52
2022-10-13T18:48:07.004Z,55.02
2022-10-13T18:50:37.219Z,54.98
2022-10-13T18:53:04.318Z,55.36
2022-10-13T18:55:31.124Z,55.11
2022-10-13T18:57:57.874Z,55.48
2022-10-13T19:00:24.525Z,55.44
2022-10-13T19:02:52.910Z,54.68
2022-10-13T19:05:19.590Z,55.80
2022-10-13T19:07:46.242Z,54.99
2022-10-13T19:10:13.093Z,54.93
2022-10-13T19:12:40.073Z,55.06
2022-10-13T19:15:06.969Z,55.88
2022-10-13T19:17:33.787Z,55.56
2022-10-13T19:20:00.394Z,54.98
2022-10-13T19:22:27.129Z,54.87
2022-10-13T19:24:53.954Z,55.75
2022-10-13T19:27:20.852Z,56.19
2022-10-13T19:29:51.509Z,55.06
2022-10-13T19:32:18.340Z,54.64
2022-10-13T19:34:45.114Z,54.68
2022-10-13T19:37:11.961Z,55.22
2022-10-13T19:39:38.669Z,54.49
2022-10-13T19:42:05.302Z,55.39
2022-10-13T19:44:31.962Z,55.51
2022-10-13T19:46:58.841Z,55.55
2022-10-13T19:49:26.608Z,55.05
2022-10-13T19:51:54.121Z,55.13
2022-10-13T19:54:20.951Z,54.63
2022-10-13T19:56:48.602Z,54.22
2022-10-13T19:59:15.799Z,55.06
2022-10-13T20:01:42.431Z,54.64
2022-10-13T20:04:09.193Z,54.23
2022-10-13T20:06:36.170Z,54.08
2022-10-13T20:09:02.910Z,55.05
2022-10-13T20:11:29.598Z,55.12
2022-10-13T20:13:56.302Z,55.58
2022-10-13T20:16:24.079Z,55.49
2022-10-13T20:18:54.920Z,55.80
2022-10-13T20:21:22.101Z,55.39
2022-10-13T20:23:49.173Z,57.63
2022-10-13T20:26:15.847Z,56.48
2022-10-13T20:28:43.505Z,56.52
2022-10-13T20:31:10.880Z,56.95
2022-10-13T20:33:37.590Z,56.79
2022-10-13T20:36:09.780Z,56.29
2022-10-13T20:38:36.412Z,56.63
2022-10-13T20:41:08.684Z,57.13
2022-10-13T20:43:35.722Z,57.89
2022-10-13T20:46:03.759Z,57.41
2022-10-13T20:48:45.565Z,57.79
2022-10-13T20:51:19.658Z,56.81
2022-10-13T20:53:47.144Z,56.52
2022-10-13T20:56:15.915Z,56.89
2022-10-13T20:58:42.998Z,57.42
2022-10-13T21:01:09.931Z,57.12
2022-10-13T21:03:38.607Z,56.82
2022-10-13T21:06:06.602Z,57.23
2022-10-13T21:08:33.580Z,56.14
2022-10-13T21:11:10.353Z,56.09
2022-10-13T21:13:37.824Z,55.66
2022-10-13T21:16:08.562Z,56.62
2022-10-13T21:18:35.591Z,56.58
2022-10-13T21:21:03.378Z,56.59
2022-10-13T21:23:30.054Z,58.50
2022-10-13T21:25:56.636Z,57.72
2022-10-13T21:28:23.264Z,57.72
2022-10-13T21:30:59.022Z,57.91
2022-10-13T21:33:25.773Z,57.40
2022-10-13T21:35:52.331Z,56.99
2022-10-13T21:38:19.093Z,57.71
2022-10-13T21:40:46.465Z,57.36
2022-10-13T21:43:15.050Z,56.82
2022-10-13T21:45:41.647Z,57.67
2022-10-13T21:48:08.182Z,58.99
2022-10-13T21:50:34.829Z,58.60
2022-10-13T21:53:01.405Z,57.86
2022-10-13T21:55:27.996Z,57.96
2022-10-13T21:57:54.564Z,58.04
2022-10-13T22:00:21.364Z,57.26
2022-10-13T22:02:48.004Z,58.34
2022-10-13T22:05:14.926Z,58.51
2022-10-13T22:07:41.589Z,57.94
2022-10-13T22:10:08.344Z,57.27
2022-10-13T22:12:34.929Z,57.42
2022-10-13T22:15:01.533Z,56.93
2022-10-13T22:17:28.214Z,56.82
2022-10-13T22:19:55.334Z,57.66
2022-10-13T22:22:22.004Z,56.79
2022-10-13T22:24:48.596Z,56.88
2022-10-13T22:27:15.191Z,57.01
2022-10-13T22:29:41.876Z,57.58
2022-10-13T22:32:08.463Z,58.46
2022-10-13T22:34:35.172Z,57.88
2022-10-13T22:37:01.793Z,57.14
2022-10-13T22:39:28.579Z,56.85
2022-10-13T22:41:55.149Z,57.64
2022-10-13T22:44:21.779Z,57.58
2022-10-13T22:46:48.389Z,58.10
2022-10-13T22:49:15.226Z,58.24
2022-10-13T22:51:41.858Z,58.79
2022-10-13T22:54:09.267Z,58.92
2022-10-13T22:56:35.880Z,58.88
2022-10-13T22:59:04.861Z,60.60
2022-10-13T23:01:31.595Z,59.65
2022-10-13T23:03:58.676Z,59.48
2022-10-13T23:06:29.785Z,59.65
2022-10-13T23:08:56.620Z,59.37
2022-10-13T23:11:23.664Z,59.89
2022-10-13T23:13:50.298Z,60.41
2022-10-13T23:16:19.096Z,60.08
2022-10-13T23:18:45.860Z,60.11
2022-10-13T23:21:13.807Z,60.64
2022-10-13T23:23:40.500Z,61.13
2022-10-13T23:26:08.464Z,60.30
2022-10-13T23:28:35.720Z,59.83
2022-10-13T23:31:03.356Z,61.26
2022-10-13T23:33:30.316Z,60.49
2022-10-13T23:35:57.900Z,59.75
2022-10-13T23:38:25.386Z,59.72
2022-10-13T23:40:52.227Z,59.76
2022-10-13T23:43:19.372Z,60.00
2022-10-13T23:45:45.976Z,59.76
2022-10-13T23:48:12.631Z,60.25
2022-10-13T23:50:39.189Z,60.50
2022-10-13T23:53:05.793Z,59.65
2022-10-13T23:55:32.463Z,61.52
2022-10-13T23:58:04.545Z,60.91
